Time;durP1;ratioP1;P1;durP2;ratioP2;P2;SDS_P1;SDS_P2;PMS_P1;PMS_P2;Temp;Humidity;BMP_temperature;BMP_pressure;BME280_temperature;BME280_humidity;BME280_pressure;Samples;Min_cycle;Max_cycle;Signal;HPM_P1;HPM_P2
2021/08/23 00:01:27;;;;;;;5.13;3.00;;;16.00;71.00;;;;;;5020452;28;20025;-81
2021/08/23 00:03:53;;;;;;;5.40;3.58;;;16.00;70.90;;;;;;5037712;28;20032;-83
2021/08/23 00:06:20;;;;;;;7.03;3.70;;;16.00;71.50;;;;;;5020279;28;20469;-82
2021/08/23 00:08:46;;;;;;;5.50;3.70;;;16.00;71.70;;;;;;5038034;28;20026;-82
2021/08/23 00:11:15;;;;;;;6.68;4.15;;;16.00;71.70;;;;;;5039337;28;20036;-82
2021/08/23 00:13:41;;;;;;;5.35;3.55;;;16.00;72.30;;;;;;5049438;28;20045;-81
2021/08/23 00:16:06;;;;;;;4.78;3.30;;;16.00;71.90;;;;;;5044218;28;20025;-82
2021/08/23 00:18:33;;;;;;;5.20;3.70;;;16.00;71.50;;;;;;5044510;28;20010;-81
2021/08/23 00:21:02;;;;;;;6.22;4.10;;;16.00;72.40;;;;;;5061517;28;20020;-82
2021/08/23 00:23:34;;;;;;;7.00;4.40;;;15.90;72.70;;;;;;5061449;28;20112;-82
2021/08/23 00:26:01;;;;;;;7.15;4.45;;;16.00;73.10;;;;;;5043929;28;20060;-82
2021/08/23 00:28:26;;;;;;;6.15;3.80;;;16.00;73.10;;;;;;5043058;28;20025;-82
2021/08/23 00:30:52;;;;;;;6.57;4.43;;;16.00;73.10;;;;;;5042380;28;20108;-83
2021/08/23 00:33:19;;;;;;;6.47;3.75;;;15.90;73.30;;;;;;5036278;28;20038;-82
2021/08/23 00:35:45;;;;;;;6.55;3.80;;;15.90;73.20;;;;;;5018608;28;20025;-83
2021/08/23 00:38:12;;;;;;;7.22;4.03;;;15.90;73.60;;;;;;5036230;28;20096;-82
2021/08/23 00:40:38;;;;;;;6.60;4.45;;;15.80;74.10;;;;;;5026289;28;20432;-83
2021/08/23 00:43:05;;;;;;;7.20;4.50;;;15.70;74.30;;;;;;5035816;28;20037;-82
2021/08/23 00:45:31;;;;;;;7.32;4.50;;;15.70;74.50;;;;;;5018849;28;20061;-82
2021/08/23 00:47:58;;;;;;;8.43;4.72;;;15.70;74.50;;;;;;5018461;28;20065;-81
2021/08/23 00:50:24;;;;;;;7.47;4.97;;;15.70;74.80;;;;;;5018485;28;20121;-82
2021/08/23 00:52:52;;;;;;;8.73;4.95;;;15.70;74.50;;;;;;5018854;28;20038;-83
2021/08/23 00:55:18;;;;;;;7.95;4.97;;;15.70;74.50;;;;;;5019100;28;20026;-82
2021/08/23 00:57:44;;;;;;;8.10;4.78;;;15.70;74.20;;;;;;5019085;28;20368;-83
2021/08/23 01:00:10;;;;;;;12.85;6.18;;;15.70;74.20;;;;;;5018533;28;20029;-82
2021/08/23 01:02:44;;;;;;;10.90;6.03;;;15.60;74.20;;;;;;5018318;28;20025;-81
2021/08/23 01:05:26;;;;;;;12.48;7.03;;;15.60;74.60;;;;;;5036666;28;20025;-82
2021/08/23 01:08:18;;;;;;;11.32;6.20;;;15.50;74.40;;;;;;5036327;28;20029;-82
2021/08/23 01:10:50;;;;;;;11.93;6.88;;;15.50;76.30;;;;;;5036232;28;20096;-82
2021/08/23 01:13:16;;;;;;;12.77;6.95;;;15.50;74.40;;;;;;5013578;28;20037;-82
2021/08/23 01:15:42;;;;;;;10.30;6.45;;;15.50;73.90;;;;;;5016126;28;20025;-82
2021/08/23 01:18:08;;;;;;;9.05;5.50;;;15.40;73.80;;;;;;5016508;28;20109;-82
2021/08/23 01:20:43;;;;;;;10.23;5.95;;;15.40;73.70;;;;;;4998594;28;20040;-83
2021/08/23 01:23:11;;;;;;;9.18;5.70;;;15.40;73.70;;;;;;4998351;28;20473;-83
2021/08/23 01:25:39;;;;;;;7.97;5.05;;;15.30;74.00;;;;;;5014366;28;20429;-83
2021/08/23 01:28:32;;;;;;;8.63;5.68;;;15.30;73.80;;;;;;4998119;28;20036;-83
2021/08/23 01:31:05;;;;;;;7.63;4.78;;;15.30;75.30;;;;;;4998153;28;20029;-82
2021/08/23 01:33:31;;;;;;;10.15;5.25;;;15.20;74.30;;;;;;4998242;28;20034;-83
2021/08/23 01:35:58;;;;;;;11.27;5.60;;;15.20;75.00;;;;;;4998228;28;20048;-84
2021/08/23 01:38:23;;;;;;;9.45;5.18;;;15.10;75.20;;;;;;5015317;28;20029;-83
2021/08/23 01:40:58;;;;;;;9.57;5.47;;;15.10;75.00;;;;;;4998015;28;20469;-83
2021/08/23 01:43:24;;;;;;;6.47;4.63;;;15.00;76.00;;;;;;5015367;28;20547;-82
2021/08/23 01:45:50;;;;;;;11.00;5.70;;;15.00;75.30;;;;;;4981463;28;20065;-82
2021/08/23 01:48:15;;;;;;;9.20;5.72;;;15.00;75.50;;;;;;4997918;28;20365;-82
2021/08/23 01:50:41;;;;;;;10.38;5.55;;;14.90;75.70;;;;;;4997489;28;20029;-83
2021/08/23 01:53:08;;;;;;;9.50;5.68;;;14.90;76.10;;;;;;5014970;28;20487;-82
2021/08/23 01:55:33;;;;;;;9.00;5.85;;;14.80;76.80;;;;;;5015029;28;20026;-83
2021/08/23 01:58:02;;;;;;;8.98;5.78;;;14.80;76.80;;;;;;4997859;28;20114;-82
2021/08/23 02:00:27;;;;;;;8.70;5.30;;;14.80;76.80;;;;;;5015528;28;20026;-82
2021/08/23 02:02:55;;;;;;;9.10;5.68;;;14.80;76.80;;;;;;4997756;28;20029;-82
2021/08/23 02:05:20;;;;;;;9.13;5.90;;;14.70;76.80;;;;;;4981272;28;20044;-83
2021/08/23 02:07:46;;;;;;;9.98;5.95;;;14.70;76.90;;;;;;4997006;28;20022;-83
2021/08/23 02:10:12;;;;;;;10.00;5.65;;;14.70;77.00;;;;;;5014639;28;20026;-85
2021/08/23 02:12:39;;;;;;;11.77;5.50;;;14.70;77.30;;;;;;4997692;28;20415;-83
2021/08/23 02:15:05;;;;;;;8.98;5.53;;;14.60;77.10;;;;;;4997404;28;20122;-83
2021/08/23 02:17:30;;;;;;;9.57;5.57;;;14.70;77.20;;;;;;5014741;28;20034;-84
2021/08/23 02:19:56;;;;;;;10.98;6.55;;;14.60;78.10;;;;;;5015253;28;20037;-84
2021/08/23 02:22:22;;;;;;;11.23;6.43;;;14.50;77.60;;;;;;5014867;28;20029;-85
2021/08/23 02:24:49;;;;;;;10.57;6.57;;;14.50;77.90;;;;;;5015152;28;20113;-84
2021/08/23 02:27:14;;;;;;;11.25;6.97;;;14.50;77.90;;;;;;5013227;28;20033;-83
2021/08/23 02:29:40;;;;;;;10.77;6.03;;;14.50;78.10;;;;;;4997986;28;20025;-83
2021/08/23 02:32:06;;;;;;;10.20;6.32;;;14.60;78.10;;;;;;4998579;28;20033;-83
2021/08/23 02:34:32;;;;;;;10.63;6.05;;;14.50;78.00;;;;;;5015054;28;20423;-83
2021/08/23 02:36:57;;;;;;;9.27;5.57;;;14.50;78.00;;;;;;5015862;28;20053;-83
2021/08/23 02:39:23;;;;;;;9.73;6.22;;;14.40;78.00;;;;;;5014468;28;20484;-84
2021/08/23 02:41:53;;;;;;;10.85;6.47;;;14.30;78.30;;;;;;4997075;28;20528;-82
2021/08/23 02:44:20;;;;;;;10.88;7.00;;;14.30;78.20;;;;;;5014993;28;20025;-84
2021/08/23 02:46:46;;;;;;;10.85;6.53;;;14.20;78.70;;;;;;5014606;28;20026;-83
2021/08/23 02:49:12;;;;;;;12.80;6.65;;;14.20;78.70;;;;;;5014229;28;20132;-84
2021/08/23 02:51:38;;;;;;;12.70;6.70;;;14.20;79.00;;;;;;4996766;28;20465;-83
2021/08/23 02:54:09;;;;;;;11.88;6.97;;;14.10;79.50;;;;;;4997120;28;20038;-84
2021/08/23 02:56:34;;;;;;;;;;;14.10;79.70;;;;;;5014760;28;20435;-83
2021/08/23 02:59:00;;;;;;;14.25;7.00;;;14.10;83.50;;;;;;5014560;28;19940;-83
2021/08/23 03:01:26;;;;;;;15.02;8.60;;;14.10;80.30;;;;;;5014123;28;20483;-83
2021/08/23 03:03:51;;;;;;;14.77;8.07;;;14.10;81.10;;;;;;4996970;28;20030;-83
2021/08/23 03:06:17;;;;;;;12.50;7.82;;;14.10;81.60;;;;;;5013561;28;20384;-84
2021/08/23 03:08:44;;;;;;;11.90;7.00;;;14.20;81.40;;;;;;5014166;28;20604;-83
2021/08/23 03:11:14;;;;;;;12.05;7.55;;;14.20;80.60;;;;;;5014062;28;20483;-83
2021/08/23 03:13:41;;;;;;;10.48;6.50;;;14.20;81.20;;;;;;4997085;28;20044;-82
2021/08/23 03:16:09;;;;;;;8.10;5.43;;;14.20;80.60;;;;;;5013876;28;20376;-82
2021/08/23 03:18:35;;;;;;;8.50;5.45;;;14.20;80.40;;;;;;4996732;28;20088;-82
2021/08/23 03:21:02;;;;;;;9.75;5.90;;;14.20;80.30;;;;;;5013643;28;20030;-82
2021/08/23 03:23:29;;;;;;;9.68;5.63;;;14.10;80.60;;;;;;5014016;28;20469;-82
2021/08/23 03:25:55;;;;;;;9.52;5.72;;;14.10;80.60;;;;;;5014202;28;20022;-82
2021/08/23 03:28:20;;;;;;;11.02;6.30;;;14.20;80.60;;;;;;5014286;28;20037;-83
2021/08/23 03:30:46;;;;;;;9.73;5.90;;;14.20;80.50;;;;;;5014067;28;20030;-83
2021/08/23 03:33:12;;;;;;;9.98;6.32;;;14.20;80.60;;;;;;4996174;28;20029;-83
2021/08/23 03:35:39;;;;;;;8.82;5.60;;;14.20;80.80;;;;;;4996335;28;20040;-83
2021/08/23 03:38:04;;;;;;;11.77;6.88;;;14.20;80.60;;;;;;5013545;28;20469;-82
2021/08/23 03:40:30;;;;;;;11.15;6.50;;;14.30;81.00;;;;;;5013782;28;20037;-83
2021/08/23 03:42:56;;;;;;;12.02;6.55;;;14.30;80.80;;;;;;5013078;28;20432;-82
2021/08/23 03:45:23;;;;;;;9.82;6.20;;;14.30;80.80;;;;;;4995840;28;20053;-82
2021/08/23 03:47:49;;;;;;;10.40;6.30;;;14.30;80.80;;;;;;4996550;28;20037;-83
2021/08/23 03:50:14;;;;;;;9.82;5.93;;;14.30;80.80;;;;;;4996101;28;20022;-83
2021/08/23 03:52:40;;;;;;;9.48;5.85;;;14.30;80.60;;;;;;4995989;28;20457;-83
2021/08/23 03:55:08;;;;;;;10.20;6.25;;;14.30;80.70;;;;;;5013805;28;20457;-82
2021/08/23 03:57:35;;;;;;;12.30;6.55;;;14.30;80.90;;;;;;4996502;28;20104;-83
2021/08/23 04:00:04;;;;;;;9.45;5.85;;;14.30;80.70;;;;;;4996094;28;20465;-83
2021/08/23 04:02:30;;;;;;;10.32;6.53;;;14.30;80.90;;;;;;5013995;28;20037;-83
2021/08/23 04:04:56;;;;;;;9.50;6.00;;;14.30;81.00;;;;;;5013373;28;20441;-83
2021/08/23 04:07:22;;;;;;;10.13;5.88;;;14.30;81.00;;;;;;4995579;28;20057;-83
2021/08/23 04:09:47;;;;;;;9.15;5.85;;;14.40;81.00;;;;;;4995620;28;20038;-82
2021/08/23 04:12:13;;;;;;;10.75;6.22;;;14.50;81.00;;;;;;4995681;28;20030;-83
2021/08/23 04:14:39;;;;;;;11.13;6.63;;;14.60;81.00;;;;;;5013243;28;20041;-82
2021/08/23 04:17:05;;;;;;;10.88;6.35;;;14.60;80.60;;;;;;4995587;28;20031;-82
2021/08/23 04:19:32;;;;;;;10.52;6.25;;;14.70;80.40;;;;;;5016947;28;20028;-83
2021/08/23 04:21:58;;;;;;;13.48;7.68;;;14.80;80.50;;;;;;5016295;28;20034;-83
2021/08/23 04:24:24;;;;;;;11.68;6.47;;;14.90;80.10;;;;;;4998831;28;20176;-83
2021/08/23 04:26:51;;;;;;;10.32;6.47;;;15.00;79.80;;;;;;5016587;28;20060;-83
2021/08/23 04:29:18;;;;;;;11.43;6.05;;;15.10;79.40;;;;;;5015322;28;20025;-82
2021/08/23 04:31:45;;;;;;;9.48;5.82;;;15.20;79.10;;;;;;5017670;28;20058;-82
2021/08/23 04:34:11;;;;;;;10.55;6.80;;;15.30;78.90;;;;;;4998459;28;20030;-83
2021/08/23 04:36:39;;;;;;;11.70;6.70;;;15.30;78.60;;;;;;4999729;28;20045;-82
2021/08/23 04:39:05;;;;;;;11.68;7.03;;;15.40;78.90;;;;;;4999375;28;20083;-82
2021/08/23 04:41:37;;;;;;;10.85;6.38;;;15.40;78.80;;;;;;4999211;28;20136;-82
2021/08/23 04:44:04;;;;;;;14.43;8.15;;;15.50;78.50;;;;;;4999820;28;20030;-83
2021/08/23 04:46:30;;;;;;;12.52;7.88;;;15.60;78.60;;;;;;4999175;28;20117;-82
2021/08/23 04:48:58;;;;;;;11.93;6.82;;;15.70;78.40;;;;;;5017484;28;20088;-82
2021/08/23 04:51:23;;;;;;;11.85;7.28;;;15.80;78.10;;;;;;4999116;28;20034;-82
2021/08/23 04:53:49;;;;;;;13.20;7.13;;;15.90;77.70;;;;;;4999786;28;20034;-83
2021/08/23 04:56:16;;;;;;;11.05;6.57;;;16.00;77.50;;;;;;5018937;28;20022;-85
2021/08/23 04:58:43;;;;;;;10.00;6.40;;;16.10;77.30;;;;;;5032251;28;20034;-83
2021/08/23 05:01:09;;;;;;;11.45;6.40;;;16.20;77.00;;;;;;5015601;28;20029;-83
2021/08/23 05:03:35;;;;;;;10.82;6.07;;;16.30;76.70;;;;;;5023476;28;20021;-84
2021/08/23 05:06:00;;;;;;;9.48;6.00;;;16.40;76.50;;;;;;5023722;28;20014;-85
2021/08/23 05:08:26;;;;;;;10.38;6.32;;;16.50;76.30;;;;;;5025557;28;20037;-85
2021/08/23 05:10:52;;;;;;;9.93;6.10;;;16.60;76.10;;;;;;5030971;28;20085;-86
2021/08/23 05:13:18;;;;;;;11.57;6.18;;;16.80;75.80;;;;;;5048585;28;20048;-85
2021/08/23 05:15:43;;;;;;;10.25;5.47;;;16.90;75.60;;;;;;5040962;28;20037;-85
2021/08/23 05:18:09;;;;;;;11.15;6.15;;;17.00;75.20;;;;;;5030580;28;20025;-84
2021/08/23 05:20:35;;;;;;;11.55;5.90;;;17.20;74.90;;;;;;5032612;28;20017;-86
2021/08/23 05:23:00;;;;;;;14.23;5.10;;;17.40;74.50;;;;;;5030492;28;20025;-84
2021/08/23 05:25:26;;;;;;;6.93;4.40;;;17.50;74.10;;;;;;5033653;28;20025;-84
2021/08/23 05:27:52;;;;;;;7.95;5.10;;;17.70;73.90;;;;;;5034476;28;20120;-83
2021/08/23 05:30:18;;;;;;;10.02;6.07;;;17.80;73.50;;;;;;5034808;28;20022;-84
2021/08/23 05:32:43;;;;;;;9.38;5.10;;;18.00;73.30;;;;;;5032977;28;20087;-84
2021/08/23 05:35:10;;;;;;;8.43;5.60;;;18.10;72.90;;;;;;5001094;28;20025;-83
2021/08/23 05:37:36;;;;;;;10.18;5.47;;;18.30;72.60;;;;;;5016230;28;20128;-83
2021/08/23 05:40:03;;;;;;;7.65;5.07;;;18.40;72.30;;;;;;5016684;28;20488;-84
2021/08/23 05:42:28;;;;;;;8.05;5.22;;;18.50;71.90;;;;;;5007204;28;20109;-84
2021/08/23 05:44:55;;;;;;;7.97;5.50;;;18.70;71.50;;;;;;5008213;28;20121;-84
2021/08/23 05:47:22;;;;;;;7.50;4.85;;;18.90;71.20;;;;;;5007060;28;20026;-84
2021/08/23 05:49:48;;;;;;;14.75;12.70;;;19.10;70.80;;;;;;5001375;28;20029;-87
2021/08/23 05:52:14;;;;;;;9.52;6.30;;;19.20;70.30;;;;;;5018142;28;20349;-89
2021/08/23 05:54:40;;;;;;;7.32;5.40;;;19.40;69.90;;;;;;5035310;28;20124;-89
2021/08/23 05:57:08;;;;;;;6.60;5.00;;;19.50;69.20;;;;;;5001484;28;20030;-85
2021/08/23 05:59:33;;;;;;;6.70;4.40;;;19.70;68.80;;;;;;5017597;28;20087;-88
2021/08/23 06:01:59;;;;;;;7.13;4.32;;;19.80;68.50;;;;;;5017086;28;20025;-85
2021/08/23 06:04:25;;;;;;;5.95;4.25;;;20.00;68.30;;;;;;5035344;28;20060;-85
2021/08/23 06:06:52;;;;;;;7.30;4.22;;;20.10;68.00;;;;;;4998463;28;20033;-85
2021/08/23 06:09:19;;;;;;;5.30;3.78;;;20.30;67.50;;;;;;5014643;28;20053;-87
2021/08/23 06:11:45;;;;;;;6.68;4.00;;;20.40;67.20;;;;;;5014477;28;20084;-87
2021/08/23 06:14:11;;;;;;;6.03;4.00;;;20.50;66.90;;;;;;4997465;28;20033;-88
2021/08/23 06:16:37;;;;;;;6.63;3.88;;;20.70;66.70;;;;;;5015105;28;20109;-86
2021/08/23 06:19:03;;;;;;;6.88;3.95;;;20.80;66.40;;;;;;4996965;28;20118;-84
2021/08/23 06:21:29;;;;;;;5.68;3.85;;;20.90;66.20;;;;;;4998822;28;20424;-87
2021/08/23 06:23:55;;;;;;;5.35;3.40;;;21.10;65.90;;;;;;5016816;28;20033;-84
2021/08/23 06:26:24;;;;;;;4.45;3.22;;;21.20;65.40;;;;;;5034044;28;20554;-83
2021/08/23 06:28:49;;;;;;;11.82;6.72;;;21.30;65.00;;;;;;5014751;28;20037;-86
2021/08/23 06:31:15;;;;;;;16.42;12.73;;;21.50;64.40;;;;;;5010441;28;20030;-84
2021/08/23 06:33:41;;;;;;;12.88;9.35;;;21.50;64.30;;;;;;5012454;28;20117;-85
2021/08/23 06:36:12;;;;;;;9.70;7.00;;;21.70;63.70;;;;;;5003401;28;20400;-83
2021/08/23 06:38:41;;;;;;;9.85;6.18;;;21.80;63.40;;;;;;5014245;28;20053;-84
2021/08/23 06:41:14;;;;;;;10.43;5.78;;;22.00;63.10;;;;;;5013324;28;20025;-83
2021/08/23 06:43:39;;;;;;;9.30;5.15;;;22.10;62.80;;;;;;5013572;28;20025;-83
2021/08/23 06:46:08;;;;;;;9.48;5.05;;;22.20;62.40;;;;;;4997779;28;20029;-82
2021/08/23 06:48:36;;;;;;;9.30;4.68;;;22.30;62.00;;;;;;5033116;28;20034;-83
2021/08/23 06:51:02;;;;;;;10.02;4.97;;;22.40;61.80;;;;;;5015214;28;20025;-84
2021/08/23 06:53:27;;;;;;;16.17;7.72;;;22.50;61.10;;;;;;5015621;28;20036;-83
2021/08/23 06:55:53;;;;;;;24.77;9.60;;;22.70;60.80;;;;;;5034480;28;20033;-84
2021/08/23 06:58:19;;;;;;;22.63;9.85;;;22.80;60.30;;;;;;5016381;28;20029;-84
2021/08/23 07:00:45;;;;;;;22.52;9.85;;;22.90;59.80;;;;;;5033980;28;20030;-83
2021/08/23 07:03:10;;;;;;;55.90;21.35;;;23.00;58.80;;;;;;5016420;28;20410;-83
2021/08/23 07:05:36;;;;;;;35.92;14.52;;;23.10;58.30;;;;;;5016317;28;20029;-83
2021/08/23 07:08:02;;;;;;;17.25;7.75;;;23.20;57.60;;;;;;5016122;28;20037;-84
2021/08/23 07:10:28;;;;;;;10.27;5.03;;;23.20;57.20;;;;;;5033631;28;20464;-84
2021/08/23 07:12:54;;;;;;;8.50;4.35;;;23.30;57.00;;;;;;5033456;28;20104;-84
2021/08/23 07:15:20;;;;;;;6.80;3.70;;;23.40;56.60;;;;;;5016197;28;20021;-84
2021/08/23 07:17:45;;;;;;;4.75;2.80;;;23.40;56.80;;;;;;5033481;28;20030;-83
2021/08/23 07:20:11;;;;;;;4.55;2.42;;;23.50;55.30;;;;;;5016354;28;20037;-83
2021/08/23 07:22:40;;;;;;;3.03;1.90;;;23.60;55.00;;;;;;5015863;28;20065;-84
2021/08/23 07:25:06;;;;;;;4.75;2.05;;;23.70;54.70;;;;;;5033669;28;20031;-83
2021/08/23 07:27:32;;;;;;;2.58;1.70;;;23.80;54.30;;;;;;5015976;28;20056;-84
2021/08/23 07:30:11;;;;;;;3.08;1.83;;;24.00;53.80;;;;;;5016006;28;20057;-83
2021/08/23 07:32:39;;;;;;;6.55;3.03;;;24.10;53.10;;;;;;5016004;28;20030;-84
2021/08/23 07:35:06;;;;;;;9.98;4.57;;;24.10;52.60;;;;;;5016506;28;20034;-85
2021/08/23 07:37:33;;;;;;;7.38;3.45;;;24.20;52.60;;;;;;5015765;28;20503;-84
2021/08/23 07:39:59;;;;;;;6.80;3.70;;;24.30;52.10;;;;;;5016030;28;20469;-82
2021/08/23 07:42:25;;;;;;;12.43;5.75;;;24.40;51.60;;;;;;5016154;28;20075;-84
2021/08/23 07:44:50;;;;;;;12.07;5.75;;;24.50;51.10;;;;;;5033489;28;20384;-85
2021/08/23 07:47:16;;;;;;;19.55;8.45;;;24.60;51.30;;;;;;5033531;28;20104;-83
2021/08/23 07:49:42;;;;;;;22.77;9.23;;;24.70;51.10;;;;;;5033590;28;20037;-82
2021/08/23 07:52:08;;;;;;;11.85;5.75;;;24.80;50.70;;;;;;5016285;28;20026;-82
2021/08/23 07:54:35;;;;;;;9.05;4.45;;;24.90;51.30;;;;;;5019743;28;20061;-83
2021/08/23 07:57:02;;;;;;;5.82;3.30;;;25.30;52.00;;;;;;5037523;28;20034;-84
2021/08/23 07:59:28;;;;;;;5.75;3.00;;;25.60;51.70;;;;;;5019406;28;20108;-84
2021/08/23 08:01:53;;;;;;;5.88;2.30;;;25.90;51.50;;;;;;5037269;28;20053;-84
2021/08/23 08:04:19;;;;;;;4.25;2.30;;;26.30;51.40;;;;;;5037553;28;20037;-83
2021/08/23 08:06:45;;;;;;;4.07;2.30;;;26.60;50.40;;;;;;5037350;28;20031;-85
2021/08/23 08:09:12;;;;;;;4.25;2.50;;;27.00;50.30;;;;;;5019684;28;20038;-84
2021/08/23 08:11:38;;;;;;;4.78;2.88;;;27.40;50.40;;;;;;5019590;28;20116;-83
2021/08/23 08:14:07;;;;;;;5.22;2.85;;;27.80;50.50;;;;;;5019362;28;20472;-83
2021/08/23 08:16:32;;;;;;;5.65;3.05;;;28.30;50.00;;;;;;5037219;28;20026;-82
2021/08/23 08:19:01;;;;;;;10.57;5.82;;;28.70;49.60;;;;;;5052296;28;20044;-87
2021/08/23 08:21:27;;;;;;;7.53;3.87;;;29.10;48.70;;;;;;5036206;28;20032;-91
2021/08/23 08:23:53;;;;;;;11.23;5.45;;;29.40;48.60;;;;;;5031869;28;20060;-93
2021/08/23 08:26:23;;;;;;;10.63;5.22;;;29.80;47.90;;;;;;5058569;28;20071;-90
2021/08/23 08:28:49;;;;;;;5.80;3.80;;;30.20;46.70;;;;;;5038306;28;20067;-93
2021/08/23 08:31:16;;;;;;;6.25;3.72;;;30.40;45.90;;;;;;5051145;28;20085;-92
2021/08/23 08:33:41;;;;;;;11.95;5.95;;;30.50;45.30;;;;;;5056478;28;20032;-91
2021/08/23 08:36:10;;;;;;;9.10;4.75;;;30.70;44.60;;;;;;5053586;28;20037;-91
2021/08/23 08:38:36;;;;;;;7.20;3.90;;;30.80;44.20;;;;;;5044726;28;20029;-91
2021/08/23 08:41:03;;;;;;;6.55;3.65;;;30.90;44.00;;;;;;5049987;28;20140;-91
2021/08/23 08:43:30;;;;;;;5.93;3.00;;;31.10;43.70;;;;;;5052637;28;20100;-91
2021/08/23 08:45:56;;;;;;;7.78;4.55;;;31.10;43.20;;;;;;5034221;28;20055;-87
2021/08/23 08:48:22;;;;;;;7.57;4.20;;;31.20;42.50;;;;;;5026928;28;20033;-87
2021/08/23 08:50:49;;;;;;;4.70;3.20;;;31.20;41.80;;;;;;5030111;28;20407;-87
2021/08/23 08:53:15;;;;;;;5.78;3.10;;;31.30;41.70;;;;;;5028294;28;20030;-87
2021/08/23 08:55:42;;;;;;;6.90;3.85;;;31.50;41.60;;;;;;5045430;28;20044;-87
2021/08/23 08:58:08;;;;;;;5.82;3.22;;;31.70;41.10;;;;;;5043374;28;20036;-88
2021/08/23 09:00:39;;;;;;;8.43;3.35;;;31.80;41.10;;;;;;5044018;28;20022;-89
2021/08/23 09:03:07;;;;;;;6.22;3.38;;;31.90;40.30;;;;;;5027764;28;20357;-88
2021/08/23 09:05:42;;;;;;;6.45;3.40;;;32.10;39.90;;;;;;5029838;28;20031;-89
2021/08/23 09:08:08;;;;;;;7.15;3.83;;;32.30;39.00;;;;;;5046027;28;20029;-88
2021/08/23 09:10:39;;;;;;;9.45;4.07;;;32.30;39.00;;;;;;5031400;28;20021;-88
2021/08/23 09:13:10;;;;;;;6.63;3.78;;;32.40;39.00;;;;;;5025319;28;20487;-86
2021/08/23 09:15:37;;;;;;;6.38;3.40;;;32.50;38.70;;;;;;5021382;28;20078;-86
2021/08/23 09:18:07;;;;;;;6.85;3.55;;;32.70;38.70;;;;;;5031867;28;20130;-87
2021/08/23 09:20:35;;;;;;;5.38;3.35;;;32.70;37.30;;;;;;5031923;28;20384;-87
2021/08/23 09:23:10;;;;;;;5.50;3.13;;;32.90;37.80;;;;;;5032864;28;20029;-87
2021/08/23 09:25:41;;;;;;;5.97;3.33;;;33.10;35.80;;;;;;5043095;28;20415;-87
2021/08/23 09:28:09;;;;;;;7.88;4.07;;;33.40;37.90;;;;;;5035667;28;20107;-86
2021/08/23 09:30:36;;;;;;;7.45;3.58;;;33.60;37.70;;;;;;5035851;28;20037;-87
2021/08/23 09:33:06;;;;;;;5.40;2.95;;;33.80;37.30;;;;;;5018818;28;20068;-88
2021/08/23 09:35:35;;;;;;;6.07;3.10;;;34.00;36.70;;;;;;5018838;28;20030;-87
2021/08/23 09:38:01;;;;;;;3.30;2.25;;;33.80;36.00;;;;;;5018691;28;20469;-87
2021/08/23 09:40:33;;;;;;;7.05;2.67;;;33.60;36.20;;;;;;5024925;28;20119;-88
2021/08/23 09:43:10;;;;;;;5.22;3.00;;;33.20;37.10;;;;;;5073909;28;20021;-89
2021/08/23 09:53:11;;;;;;;1.75;1.60;;;32.70;34.10;;;;;;4890202;29;20052;-91
2021/08/23 09:55:40;;;;;;;5.05;2.25;;;32.00;36.10;;;;;;4939443;29;20133;-91
2021/08/23 09:58:08;;;;;;;3.45;2.03;;;31.30;36.80;;;;;;4924878;29;20028;-91
2021/08/23 10:00:35;;;;;;;3.25;2.30;;;30.80;37.30;;;;;;5015351;28;20013;-91
2021/08/23 10:03:04;;;;;;;4.82;2.58;;;30.30;37.90;;;;;;5058850;28;20057;-90
2021/08/23 10:05:31;;;;;;;3.38;2.47;;;29.90;38.50;;;;;;5041401;28;20013;-91
2021/08/23 10:07:57;;;;;;;4.70;2.50;;;29.60;39.30;;;;;;5039435;28;20032;-89
2021/08/23 10:10:23;;;;;;;4.35;2.72;;;29.30;39.90;;;;;;5031166;28;20029;-91
2021/08/23 10:12:49;;;;;;;2.78;2.30;;;29.00;40.00;;;;;;5036137;28;20048;-85
2021/08/23 10:15:15;;;;;;;2.58;2.08;;;28.70;40.40;;;;;;5016720;28;20452;-85
2021/08/23 10:17:41;;;;;;;3.00;2.00;;;28.40;40.60;;;;;;5016941;28;20037;-84
2021/08/23 10:20:10;;;;;;;3.00;2.05;;;28.20;40.90;;;;;;5016879;28;20091;-85
2021/08/23 10:22:39;;;;;;;2.42;2.00;;;28.00;41.30;;;;;;5016996;28;20027;-84
2021/08/23 10:25:09;;;;;;;3.30;2.30;;;27.80;41.60;;;;;;5034630;28;20099;-85
2021/08/23 10:27:39;;;;;;;3.30;2.35;;;27.70;41.80;;;;;;5016743;28;20026;-84
2021/08/23 10:30:06;;;;;;;2.78;2.25;;;27.50;41.90;;;;;;5035315;28;20025;-86
2021/08/23 10:32:39;;;;;;;3.20;2.47;;;27.40;42.10;;;;;;5016877;28;20133;-85
2021/08/23 10:35:21;;;;;;;3.78;2.60;;;27.30;42.40;;;;;;5016869;28;20033;-85
2021/08/23 10:37:51;;;;;;;3.17;2.47;;;27.20;43.00;;;;;;5034344;28;20049;-87
2021/08/23 10:40:23;;;;;;;4.55;2.33;;;27.00;42.60;;;;;;5034552;28;20021;-85
2021/08/23 10:42:49;;;;;;;3.60;2.20;;;27.00;42.70;;;;;;5034438;28;20321;-85
2021/08/23 10:45:18;;;;;;;3.72;2.15;;;27.00;42.80;;;;;;5016653;28;20026;-86
2021/08/23 10:47:44;;;;;;;3.05;2.08;;;26.90;42.90;;;;;;5016853;28;20030;-91
2021/08/23 10:50:39;;;;;;;3.55;2.22;;;26.80;42.90;;;;;;5016603;28;20033;-85
2021/08/23 10:53:15;;;;;;;2.53;1.83;;;26.80;43.40;;;;;;5013096;28;20034;-85
2021/08/23 10:55:41;;;;;;;2.80;1.80;;;26.80;43.30;;;;;;5017639;28;20021;-88
2021/08/23 10:58:09;;;;;;;2.42;1.60;;;26.80;43.10;;;;;;5034489;28;20349;-87
2021/08/23 11:00:41;;;;;;;3.50;1.92;;;26.80;43.20;;;;;;5016362;28;20032;-85
2021/08/23 11:03:10;;;;;;;5.30;2.35;;;26.70;43.10;;;;;;5016917;28;20036;-86
2021/08/23 11:05:37;;;;;;;2.60;2.00;;;26.70;43.20;;;;;;5016155;28;20026;-89
2021/08/23 11:08:09;;;;;;;2.90;2.10;;;26.70;43.40;;;;;;5017863;28;20029;-86
2021/08/23 11:10:39;;;;;;;6.22;2.10;;;26.70;43.40;;;;;;5023922;28;20041;-87
2021/08/23 11:13:17;;;;;;;7.25;4.25;;;26.80;43.60;;;;;;5014986;28;20095;-88
2021/08/23 11:15:49;;;;;;;5.07;3.53;;;26.90;43.80;;;;;;5034346;28;20029;-89
2021/08/23 11:18:21;;;;;;;3.45;2.58;;;27.00;43.70;;;;;;5015515;28;20419;-89
2021/08/23 11:20:52;;;;;;;2.97;2.25;;;27.30;43.60;;;;;;5015490;28;20033;-89
2021/08/23 11:23:24;;;;;;;5.30;2.83;;;27.80;43.80;;;;;;4993202;28;20048;-89
2021/08/23 11:25:54;;;;;;;3.38;2.47;;;28.40;43.40;;;;;;5014507;28;20487;-91
2021/08/23 11:28:26;;;;;;;2.80;2.00;;;28.90;42.60;;;;;;4998532;28;20106;-91
2021/08/23 11:30:56;;;;;;;4.88;2.13;;;29.20;42.20;;;;;;5035080;28;20079;-92
2021/08/23 11:33:33;;;;;;;3.03;2.13;;;29.40;42.20;;;;;;5015950;28;20048;-87
2021/08/23 11:36:01;;;;;;;4.43;2.63;;;30.00;40.90;;;;;;5004417;28;20458;-86
2021/08/23 11:38:40;;;;;;;4.00;2.55;;;30.80;41.50;;;;;;5011433;28;20080;-87
2021/08/23 11:41:08;;;;;;;4.15;2.80;;;31.60;38.60;;;;;;4989497;28;20190;-90
2021/08/23 11:43:35;;;;;;;3.30;2.53;;;32.30;40.10;;;;;;5000392;28;20038;-85
2021/08/23 11:46:05;;;;;;;3.50;2.40;;;33.10;39.50;;;;;;5011472;28;20080;-87
2021/08/23 11:48:31;;;;;;;3.25;2.28;;;34.00;38.30;;;;;;5011241;28;20030;-86
2021/08/23 11:50:57;;;;;;;4.63;2.55;;;34.50;37.80;;;;;;5013836;28;20036;-90
2021/08/23 11:53:24;;;;;;;3.65;2.40;;;35.10;37.10;;;;;;4993072;28;20045;-91
2021/08/23 11:55:51;;;;;;;2.65;2.15;;;35.60;36.70;;;;;;5000029;28;20026;-87
2021/08/23 11:58:20;;;;;;;3.97;2.20;;;35.80;36.00;;;;;;5011729;28;20116;-88
2021/08/23 12:01:03;;;;;;;2.90;2.22;;;36.10;35.70;;;;;;5005958;28;20033;-88
2021/08/23 12:03:32;;;;;;;3.50;2.10;;;36.50;33.90;;;;;;4975569;28;20038;-87
2021/08/23 12:06:09;;;;;;;;;;;36.70;34.80;;;;;;5003641;28;20040;-88
2021/08/23 12:08:37;;;;;;;2.78;2.00;;;36.50;31.30;;;;;;4997221;28;19912;-88
2021/08/23 12:11:10;;;;;;;3.00;2.00;;;36.30;34.30;;;;;;5002354;28;20030;-87
2021/08/23 12:13:46;;;;;;;7.55;2.38;;;36.10;34.00;;;;;;5013886;28;20034;-84
2021/08/23 12:16:17;;;;;;;2.60;1.90;;;35.70;33.10;;;;;;4995439;28;20030;-85
2021/08/23 12:18:45;;;;;;;2.05;1.85;;;35.30;34.10;;;;;;5029149;28;20068;-85
2021/08/23 12:21:27;;;;;;;2.47;1.70;;;35.00;34.30;;;;;;5033851;28;20022;-88
2021/08/23 12:23:58;;;;;;;6.30;2.30;;;34.80;33.00;;;;;;5032513;28;20033;-86
2021/08/23 12:26:39;;;;;;;2.90;2.20;;;34.70;34.30;;;;;;5017251;28;20124;-87
2021/08/23 12:29:24;;;;;;;3.30;2.10;;;34.40;33.60;;;;;;5017334;28;20120;-86
2021/08/23 12:31:58;;;;;;;2.80;2.58;;;34.30;34.00;;;;;;5035949;28;20026;-85
2021/08/23 12:34:34;;;;;;;3.72;3.03;;;34.40;34.60;;;;;;5033962;28;20464;-87
2021/08/23 12:37:01;;;;;;;3.17;2.70;;;34.70;34.20;;;;;;4955372;28;1209038;-86
2021/08/23 12:39:28;;;;;;;2.95;2.65;;;34.80;34.40;;;;;;5003633;28;20080;-86
2021/08/23 12:41:57;;;;;;;3.78;2.80;;;35.10;34.40;;;;;;5031684;28;20052;-87
2021/08/23 12:44:23;;;;;;;3.45;2.13;;;35.30;34.10;;;;;;5027585;28;20052;-85
2021/08/23 12:46:50;;;;;;;3.13;2.20;;;35.30;33.80;;;;;;5031733;28;20060;-87
2021/08/23 12:49:17;;;;;;;2.03;1.80;;;34.90;33.50;;;;;;5013701;28;20077;-86
2021/08/23 12:51:44;;;;;;;2.95;2.22;;;34.60;33.70;;;;;;5016848;28;20029;-87
2021/08/23 12:54:11;;;;;;;2.70;2.00;;;34.40;34.00;;;;;;5016695;28;20045;-86